Terminal Aerodrome Forecast
Issued by NWS

Current Version | Previous Version | Graphics & Text | Print | Product List | Glossary On
Versions: 1 2 3 4 5 6 7 8 9 10 11 12 13 14 15 16
000
FTUS41 KPBZ 190855 AAA
TAFMGW
TAF AMD
KMGW 190855Z 1909/2006 33005KT 4SM BR BKN003
     FM191400 31012G22KT 2SM -SHSN OVC015
     FM191800 31013G25KT P6SM VCSH BKN025
     FM192300 30012G22KT P6SM BKN035
     FM200200 30008KT P6SM BKN025=

USA.gov is the U.S. government's official web portal to all federal, state and local government web resources and services.